^^
Grace C. Lehan Memorial Weather Station Historical Data
Daily Summary for January 1, 2021 Units:  Metric    English   Both
Daily Weekly Monthly Yearly
  High: Low: Average:
Temperature: 26.3 °C 9.9 °C 18.4 °C
Dew Point: 14.6 °C 8.8 °C 11.8 °C
Humidity: 94% 39.7% 69%
Wind Speed: 4.8km/h 0km/h 0.5km/h
Wind Gust: 11.3km/h - -
Wind- - WSW
Pressure: 1024.3 hPa 1020.5 hPa -
Precipitation: 0.51 mm    
 
 
Tabular Data for January 1, 2021
Time Temperature Dew Point Pressure Wind Wind Speed Wind Gust Humidity Rainfall Rate (Hourly) solar
00:04 11.8 °C 10.4 °C 1022.2 hPa West 1 km/h 6.4 km/h 90.9% 0 mm 0 W/m2
00:09 11.8 °C 10.4 °C 1021.9 hPa West 0.5 km/h 6.4 km/h 91.1% 0 mm 0 W/m2
00:14 11.9 °C 10.6 °C 1021.9 hPa West 0.8 km/h 8 km/h 92% 0 mm 0 W/m2
00:19 11.9 °C 10.6 °C 1021.9 hPa WSW 1.8 km/h 8 km/h 91.8% 0 mm 0 W/m2
00:24 11.9 °C 10.5 °C 1021.9 hPa WSW 1.1 km/h 11.3 km/h 91% 0 mm 0 W/m2
00:29 12 °C 10.6 °C 1021.9 hPa West 0.5 km/h 11.3 km/h 91% 0 mm 0 W/m2
00:34 12.1 °C 10.6 °C 1021.9 hPa West 0.5 km/h 11.3 km/h 91% 0 mm 0 W/m2
00:39 12.1 °C 10.7 °C 1021.9 hPa Calm   4.8 km/h 91% 0 mm 0 W/m2
00:44 12.1 °C 10.7 °C 1022.2 hPa Calm   4.8 km/h 91% 0 mm 0 W/m2
00:49 12.1 °C 10.6 °C 1021.9 hPa Calm   4.8 km/h 90.5% 0 mm 0 W/m2
00:54 12.1 °C 10.5 °C 1021.9 hPa West 0.5 km/h 8 km/h 90% 0 mm 0 W/m2
00:59 12.1 °C 10.4 °C 1021.9 hPa Calm   8 km/h 90% 0 mm 0 W/m2
01:04 12 °C 10.4 °C 1021.9 hPa West 1 km/h 8 km/h 90% 0 mm 0 W/m2
01:09 12 °C 10.4 °C 1021.9 hPa SW 1 km/h 8 km/h 90% 0 mm 0 W/m2
01:14 12.1 °C 10.4 °C 1021.9 hPa SW 0.5 km/h 8 km/h 90% 0 mm 0 W/m2
01:19 12.1 °C 10.5 °C 1021.9 hPa WSW 1.3 km/h 9.7 km/h 90% 0 mm 0 W/m2
01:24 12.1 °C 10.5 °C 1021.9 hPa West 1 km/h 9.7 km/h 90% 0 mm 0 W/m2
01:29 12.1 °C 10.6 °C 1021.9 hPa WSW 0.8 km/h 9.7 km/h 90% 0 mm 0 W/m2
01:34 12.2 °C 10.6 °C 1021.9 hPa WSW 0.3 km/h 9.7 km/h 90% 0 mm 0 W/m2
01:39 12.2 °C 10.6 °C 1021.9 hPa WSW 0.3 km/h 4.8 km/h 89.8% 0 mm 0 W/m2
01:44 12.2 °C 10.4 °C 1021.9 hPa WSW 0.6 km/h 6.4 km/h 89% 0 mm 0 W/m2
01:49 12.2 °C 10.4 °C 1021.9 hPa SW 0.5 km/h 6.4 km/h 89% 0 mm 0 W/m2
01:54 12.2 °C 10.6 °C 1021.9 hPa WSW 1 km/h 6.4 km/h 89.8% 0 mm 0 W/m2
01:59 12.2 °C 10.5 °C 1021.9 hPa WSW 2.3 km/h 8 km/h 89.5% 0 mm 0 W/m2
02:04 12.2 °C 10.4 °C 1021.9 hPa WSW 2.1 km/h 9.7 km/h 89% 0 mm 0 W/m2
02:09 12.2 °C 10.4 °C 1021.9 hPa WSW 0.5 km/h 9.7 km/h 89% 0 mm 0 W/m2
02:14 12.1 °C 10.3 °C 1021.9 hPa Calm   9.7 km/h 89% 0 mm 0 W/m2
02:19 12.1 °C 10.3 °C 1021.9 hPa SW 0.6 km/h 9.7 km/h 89% 0 mm 0 W/m2
02:24 12.1 °C 10.3 °C 1021.9 hPa SW 0.8 km/h 9.7 km/h 89% 0 mm 0 W/m2
02:29 12.1 °C 10.3 °C 1021.9 hPa SW 0.2 km/h 9.7 km/h 89% 0 mm 0 W/m2
02:30 12.1 °C 10.3 °C 1021.9 hPa Calm   9.7 km/h 89% 0 mm 0 W/m2
03:00 11.9 °C 10.2 °C 1021.9 hPa Calm   6.4 km/h 89% 0 mm 0 W/m2
03:30 11.4 °C 9.7 °C 1022.2 hPa Calm   6.4 km/h 89% 0 mm 0 W/m2
04:04 10.7 °C 9.3 °C 1022.2 hPa Calm     91% 0 mm 0 W/m2
04:09 10.6 °C 9.2 °C 1022.2 hPa Calm     91% 0 mm 0 W/m2
04:14 10.4 °C 9 °C 1022.2 hPa Calm     90.9% 0 mm 0 W/m2
04:19 10.3 °C 8.9 °C 1022.2 hPa Calm     91% 0 mm 0 W/m2
04:24 10.2 °C 8.8 °C 1022.6 hPa Calm     91% 0 mm 0 W/m2
04:29 10.2 °C 8.9 °C 1022.6 hPa Calm     92% 0 mm 0 W/m2
04:34 10.1 °C 8.9 °C 1022.6 hPa Calm     92% 0 mm 0 W/m2
04:39 10.1 °C 8.8 °C 1022.6 hPa Calm     92% 0 mm 0 W/m2
04:44 10 °C 8.8 °C 1022.6 hPa Calm     92% 0 mm 0 W/m2
04:49 10 °C 8.8 °C 1022.6 hPa Calm     92% 0 mm 0 W/m2
04:54 9.9 °C 8.9 °C 1022.6 hPa Calm     93% 0 mm 0 W/m2
04:59 9.9 °C 8.9 °C 1022.6 hPa Calm     93% 0 mm 0 W/m2
05:04 9.9 °C 8.8 °C 1022.6 hPa Calm     93% 0 mm 0 W/m2
05:09 9.9 °C 8.8 °C 1022.6 hPa Calm     93% 0 mm 0 W/m2
05:14 9.9 °C 8.8 °C 1022.9 hPa Calm     93% 0 mm 0 W/m2
05:19 9.9 °C 8.8 °C 1022.9 hPa Calm     93% 0 mm 0 W/m2
05:24 9.9 °C 8.8 °C 1022.9 hPa Calm     93% 0 mm 0 W/m2
05:29 9.9 °C 8.8 °C 1022.9 hPa Calm     93% 0 mm 5 W/m2
05:34 9.9 °C 8.9 °C 1022.9 hPa Calm     93.4% 0 mm 7 W/m2
05:39 10 °C 9.1 °C 1022.9 hPa Calm     94% 0 mm 11 W/m2
05:44 10.1 °C 9.2 °C 1022.9 hPa Calm     94% 0 mm 11 W/m2
05:49 10.2 °C 9.3 °C 1023.2 hPa Calm     94% 0 mm 14 W/m2
05:54 10.2 °C 9.3 °C 1023.2 hPa Calm     94% 0 mm 18 W/m2
05:59 10.3 °C 9.3 °C 1023.2 hPa Calm     94% 0 mm 21 W/m2
06:04 10.3 °C 9.4 °C 1023.2 hPa Calm     94% 0 mm 25 W/m2
06:09 10.4 °C 9.5 °C 1023.2 hPa Calm     94% 0 mm 30 W/m2
06:14 10.4 °C 9.6 °C 1023.2 hPa Calm     94% 0 mm 39 W/m2
06:19 10.6 °C 9.6 °C 1023.2 hPa Calm     94% 0 mm 46 W/m2
06:24 10.6 °C 9.7 °C 1023.2 hPa Calm     94% 0 mm 54 W/m2
06:29 10.7 °C 9.8 °C 1023.2 hPa Calm     94% 0 mm 56 W/m2
06:34 10.7 °C 9.8 °C 1023.2 hPa Calm     94% 0 mm 60 W/m2
06:39 10.8 °C 9.9 °C 1023.2 hPa Calm     94% 0 mm 67 W/m2
06:44 10.9 °C 10 °C 1023.2 hPa Calm     94% 0 mm 70 W/m2
06:49 11.1 °C 10.2 °C 1023.2 hPa Calm     94% 0 mm 77 W/m2
06:54 11.2 °C 10.3 °C 1023.2 hPa Calm     94% 0 mm 83 W/m2
06:59 11.3 °C 10.4 °C 1023.2 hPa Calm     94% 0 mm 93 W/m2
07:04 11.5 °C 10.6 °C 1023.2 hPa Calm     94% 0 mm 120 W/m2
07:09 11.7 °C 10.8 °C 1022.9 hPa Calm     94% 0 mm 123 W/m2
07:14 12.1 °C 11.1 °C 1023.2 hPa Calm     94% 0 mm 123 W/m2
07:19 12.3 °C 11.3 °C 1023.2 hPa Calm     93.2% 0 mm 204 W/m2
07:24 12.7 °C 11.6 °C 1023.2 hPa Calm     93% 0 mm 214 W/m2
07:29 13.1 °C 11.8 °C 1023.6 hPa Calm     92.3% 0 mm 237 W/m2
07:34 13.3 °C 11.9 °C 1023.6 hPa Calm     90.7% 0 mm 237 W/m2
07:39 13.6 °C 11.9 °C 1023.9 hPa Calm     89.1% 0 mm 206 W/m2
07:44 13.8 °C 11.7 °C 1023.9 hPa Calm     86.8% 0 mm 241 W/m2
07:49 14 °C 11.6 °C 1023.9 hPa Calm     85.3% 0 mm 241 W/m2
07:54 14.2 °C 11.7 °C 1023.9 hPa Calm     84.9% 0 mm 190 W/m2
07:59 14.4 °C 11.7 °C 1023.9 hPa Calm     83.8% 0 mm 181 W/m2
08:04 14.6 °C 11.8 °C 1023.9 hPa Calm     83% 0 mm 178 W/m2
08:09 14.7 °C 11.7 °C 1023.9 hPa Calm     82.1% 0 mm 213 W/m2
08:14 14.8 °C 11.9 °C 1023.9 hPa Calm     82.8% 0 mm 232 W/m2
08:19 15 °C 11.9 °C 1023.9 hPa Calm     81.9% 0 mm 237 W/m2
08:24 15.1 °C 11.7 °C 1023.9 hPa Calm     79.8% 0 mm 253 W/m2
08:29 15.2 °C 11.8 °C 1023.9 hPa Calm     79.7% 0 mm 213 W/m2
08:34 15.4 °C 11.7 °C 1023.9 hPa Calm     78.9% 0 mm 204 W/m2
08:39 15.4 °C 11.6 °C 1023.9 hPa Calm     77.8% 0 mm 178 W/m2
08:44 15.6 °C 11.8 °C 1023.9 hPa Calm     78.2% 0 mm 207 W/m2
08:49 15.6 °C 12 °C 1023.9 hPa Calm     79% 0 mm 216 W/m2
08:54 15.7 °C 11.9 °C 1023.9 hPa Calm     78.3% 0 mm 220 W/m2
08:59 15.8 °C 12.1 °C 1023.9 hPa Calm     78.5% 0 mm 229 W/m2
09:04 15.8 °C 11.9 °C 1024.3 hPa Calm     77.5% 0 mm 244 W/m2
09:09 15.9 °C 12 °C 1023.9 hPa Calm     77.4% 0 mm 239 W/m2
09:14 15.9 °C 11.7 °C 1023.9 hPa Calm     75.6% 0 mm 220 W/m2
09:19 16 °C 11.7 °C 1023.9 hPa Calm     75.5% 0 mm 244 W/m2
09:24 16.1 °C 12.1 °C 1023.9 hPa Calm     76.8% 0 mm 265 W/m2
09:29 16.3 °C 12.2 °C 1023.9 hPa Calm     77% 0 mm 264 W/m2
09:34 16.4 °C 12.5 °C 1023.9 hPa Calm     77.8% 0 mm 211 W/m2
09:39 16.5 °C 12.6 °C 1023.9 hPa Calm     78% 0 mm 211 W/m2
09:44 16.6 °C 12.8 °C 1023.9 hPa Calm     78.8% 0 mm 248 W/m2
09:49 16.6 °C 12.9 °C 1023.9 hPa Calm     79% 0 mm 308 W/m2
09:54 16.7 °C 13 °C 1023.9 hPa Calm     79% 0 mm 299 W/m2
09:59 16.7 °C 12.9 °C 1023.9 hPa Calm     78.1% 0 mm 274 W/m2
10:04 16.8 °C 12.9 °C 1023.9 hPa Calm     78% 0 mm 239 W/m2
10:09 16.9 °C 13.2 °C 1023.9 hPa Calm     78.7% 0 mm 236 W/m2
10:14 17 °C 13.4 °C 1023.9 hPa Calm     79.4% 0 mm 236 W/m2
10:19 17.1 °C 13.4 °C 1023.9 hPa Calm     79% 0 mm 241 W/m2
10:24 17.3 °C 13.5 °C 1023.9 hPa Calm     78.6% 0 mm 243 W/m2
10:29 17.4 °C 13.4 °C 1023.9 hPa Calm     77.3% 0 mm 251 W/m2
10:34 17.5 °C 13.6 °C 1023.9 hPa Calm     78% 0 mm 353 W/m2
10:39 17.6 °C 13.4 °C 1023.9 hPa Calm     77% 0 mm 434 W/m2
10:44 17.6 °C 13.5 °C 1023.9 hPa Calm     76.7% 0 mm 434 W/m2
10:49 17.8 °C 13.7 °C 1023.6 hPa Calm     76.9% 0 mm 526 W/m2
10:54 18.1 °C 13.8 °C 1023.6 hPa Calm     76.6% 0 mm 554 W/m2
10:59 18.4 °C 14.2 °C 1023.6 hPa Calm     76.8% 0 mm 722 W/m2
11:04 18.8 °C 14.4 °C 1023.6 hPa Calm     75.6% 0 mm 838 W/m2
11:09 19.3 °C 14.6 °C 1023.6 hPa Calm     74.2% 0 mm 838 W/m2
11:14 19.7 °C 14.3 °C 1023.6 hPa Calm     71.4% 0 mm 601 W/m2
11:19 20 °C 14.6 °C 1023.6 hPa Calm     71.2% 0 mm 918 W/m2
11:24 20.3 °C 14.2 °C 1023.6 hPa Calm     67.8% 0 mm 717 W/m2
11:29 20.6 °C 14.1 °C 1023.6 hPa Calm     66.2% 0 mm 944 W/m2
11:34 20.9 °C 13.8 °C 1023.6 hPa Calm     63.9% 0 mm 944 W/m2
11:39 21.3 °C 13.3 °C 1023.2 hPa Calm     60.4% 0 mm 838 W/m2
11:44 21.7 °C 12.4 °C 1023.2 hPa Calm     55.7% 0.51 mm 954 W/m2
11:49 22.1 °C 12.3 °C 1023.2 hPa Calm     53.8% 0.51 mm 1014 W/m2
11:54 22.4 °C 12.6 °C 1023.2 hPa WSW 0.8 km/h 8 km/h 53.8% 0.51 mm 1014 W/m2
11:59 22.9 °C 12.3 °C 1023.2 hPa WSW 0.3 km/h 8 km/h 51.1% 0.51 mm 828 W/m2
12:00 23.1 °C 11.8 °C 1022.9 hPa WSW 4.8 km/h 8 km/h 49% 0.51 mm 793 W/m2
12:09 23.5 °C 11.9 °C 1022.9 hPa WSW 0.6 km/h 8 km/h 48% 0.51 mm 622 W/m2
12:14 23.8 °C 11.5 °C 1022.9 hPa Calm   8 km/h 46.2% 0.51 mm 485 W/m2
12:19 23.8 °C 11.3 °C 1022.9 hPa West 0.8 km/h 8 km/h 45.4% 0.51 mm 482 W/m2
12:24 23.8 °C 11.4 °C 1022.9 hPa West 0.3 km/h 8 km/h 45.6% 0.51 mm 454 W/m2
12:29 23.8 °C 11.9 °C 1022.9 hPa West 0.2 km/h 8 km/h 47.3% 0.51 mm 541 W/m2
12:34 23.8 °C 11.9 °C 1022.9 hPa West 1.3 km/h 8 km/h 47.2% 0.51 mm 738 W/m2
12:39 23.8 °C 11.7 °C 1022.9 hPa West 0.5 km/h 6.4 km/h 46.7% 0.51 mm 802 W/m2
12:44 23.9 °C 12.3 °C 1022.9 hPa West 0.5 km/h 6.4 km/h 48.1% 0.51 mm 761 W/m2
12:49 24.1 °C 11.9 °C 1022.9 hPa Calm   6.4 km/h 46.4% 0.51 mm 786 W/m2
12:54 24.2 °C 11.4 °C 1022.9 hPa West 0.2 km/h 6.4 km/h 44.8% 0.51 mm 888 W/m2
12:59 24.2 °C 10.8 °C 1022.6 hPa West 0.2 km/h 6.4 km/h 43% 0.51 mm 888 W/m2
13:04 24.2 °C 11.8 °C 1022.6 hPa West 0.3 km/h 6.4 km/h 46% 0.51 mm 972 W/m2
13:09 24.3 °C 12 °C 1022.6 hPa West 1.8 km/h 9.7 km/h 46.1% 0 mm 1009 W/m2
13:14 24.6 °C 12.1 °C 1022.6 hPa WSW 0.2 km/h 9.7 km/h 45.7% 0 mm 912 W/m2
13:19 24.7 °C 11.9 °C 1022.6 hPa WSW 2.7 km/h 11.3 km/h 44.8% 0 mm 912 W/m2
13:24 24.7 °C 11.4 °C 1022.6 hPa WSW 1.3 km/h 11.3 km/h 43.3% 0 mm 851 W/m2
13:29 24.8 °C 12.8 °C 1022.2 hPa WSW 1.3 km/h 11.3 km/h 47.4% 0 mm 860 W/m2
13:34 24.8 °C 11.9 °C 1022.2 hPa WSW 0.2 km/h 11.3 km/h 44.5% 0 mm 729 W/m2
13:39 24.8 °C 12.4 °C 1021.9 hPa WSW 1.6 km/h 4.8 km/h 46.1% 0 mm 816 W/m2
13:44 24.8 °C 12.5 °C 1021.9 hPa WSW 1.3 km/h 6.4 km/h 46.2% 0 mm 796 W/m2
13:49 25 °C 12.5 °C 1021.9 hPa WSW 3.1 km/h 6.4 km/h 45.8% 0 mm 824 W/m2
13:54 25.1 °C 12.2 °C 1021.9 hPa WSW 0.2 km/h 6.4 km/h 44.7% 0 mm 891 W/m2
13:59 25.1 °C 12.4 °C 1021.9 hPa WSW 1.8 km/h 9.7 km/h 45.2% 0 mm 891 W/m2
14:04 25.2 °C 12.2 °C 1021.6 hPa West 2.1 km/h 9.7 km/h 44.3% 0 mm 763 W/m2
14:09 25.3 °C 12.1 °C 1021.6 hPa West 1.4 km/h 6.4 km/h 43.8% 0 mm 831 W/m2
14:14 25.4 °C 12.1 °C 1021.6 hPa SW 3.7 km/h 11.3 km/h 43.5% 0 mm 889 W/m2
14:19 25.4 °C 12.6 °C 1021.6 hPa WSW 0.8 km/h 11.3 km/h 44.9% 0 mm 939 W/m2
14:24 25.5 °C 12.8 °C 1021.6 hPa WSW 3.4 km/h 11.3 km/h 45.2% 0 mm 875 W/m2
14:29 25.6 °C 11.8 °C 1021.6 hPa WSW 3.5 km/h 11.3 km/h 42.3% 0 mm 928 W/m2
14:34 25.6 °C 11.9 °C 1021.6 hPa West 1.9 km/h 11.3 km/h 42.3% 0 mm 944 W/m2
14:39 25.6 °C 11.6 °C 1021.6 hPa West 0.5 km/h 9.7 km/h 41.6% 0 mm 930 W/m2
14:44 25.8 °C 12.7 °C 1021.6 hPa West 2.4 km/h 9.7 km/h 44.1% 0 mm 926 W/m2
14:49 26 °C 12.8 °C 1021.6 hPa WSW 1.3 km/h 11.3 km/h 44% 0 mm 923 W/m2
14:54 26.2 °C 11.4 °C 1021.6 hPa WSW 1.6 km/h 11.3 km/h 39.7% 0 mm 905 W/m2
14:59 26.3 °C 12.1 °C 1021.2 hPa WSW 0.8 km/h 11.3 km/h 41.2% 0 mm 826 W/m2
15:04 26.1 °C 12.2 °C 1021.2 hPa SW 0.6 km/h 11.3 km/h 41.9% 0 mm 902 W/m2
15:09 26.1 °C 11.9 °C 1021.2 hPa SSW 2.7 km/h 8 km/h 41.3% 0 mm 889 W/m2
15:14 26.1 °C 12.5 °C 1021.2 hPa SW 2.9 km/h 8 km/h 42.8% 0 mm 853 W/m2
15:19 26.1 °C 11.8 °C 1021.2 hPa SW 2.3 km/h 9.7 km/h 41% 0 mm 861 W/m2
15:24 26 °C 11.7 °C 1021.2 hPa SW 2.9 km/h 9.7 km/h 40.9% 0 mm 853 W/m2
15:29 26.1 °C 12.3 °C 1021.2 hPa SW 0.8 km/h 9.7 km/h 42.6% 0 mm 840 W/m2
15:34 26.1 °C 11.7 °C 1020.9 hPa SSW 1.9 km/h 9.7 km/h 40.8% 0 mm 835 W/m2
15:39 26.1 °C 12.3 °C 1020.9 hPa SW 3.4 km/h 9.7 km/h 42.5% 0 mm 835 W/m2
15:44 26.1 °C 12.4 °C 1020.9 hPa SSW 2.9 km/h 9.7 km/h 42.7% 0 mm 710 W/m2
15:49 26.1 °C 12.2 °C 1020.9 hPa SSW 3.2 km/h 9.7 km/h 42% 0 mm 722 W/m2
15:54 26 °C 12.1 °C 1020.9 hPa SW 4.5 km/h 11.3 km/h 41.8% 0 mm 705 W/m2
15:59 26 °C 12.4 °C 1020.9 hPa SW 1.1 km/h 11.3 km/h 43% 0 mm 773 W/m2
16:09 25.9 °C 12.3 °C 1020.9 hPa SW 1.8 km/h 11.3 km/h 42.5% 0 mm 659 W/m2
16:14 25.9 °C 12.2 °C 1020.9 hPa SW 0.3 km/h 11.3 km/h 42.5% 0 mm 167 W/m2
16:19 25.8 °C 11.7 °C 1020.9 hPa SW 0.8 km/h 11.3 km/h 41.4% 0 mm 174 W/m2
16:24 25.6 °C 11.6 °C 1020.9 hPa SW 1.4 km/h 11.3 km/h 41.5% 0 mm 185 W/m2
16:29 25.5 °C 11.4 °C 1020.9 hPa SSW 1.4 km/h 11.3 km/h 41.4% 0 mm 160 W/m2
16:34 25.5 °C 12.4 °C 1020.9 hPa WSW 1 km/h 11.3 km/h 44% 0 mm 111 W/m2
16:39 25.6 °C 11.9 °C 1020.9 hPa West 2.6 km/h 11.3 km/h 42.7% 0 mm 91 W/m2
16:44 25.6 °C 12 °C 1020.9 hPa WNW 3.2 km/h 11.3 km/h 42.8% 0 mm 88 W/m2
16:49 25.5 °C 11.6 °C 1020.9 hPa West 1.1 km/h 11.3 km/h 41.6% 0 mm 121 W/m2
16:54 25.3 °C 11.6 °C 1020.9 hPa SW 2.1 km/h 11.3 km/h 42.3% 0 mm 130 W/m2
16:59 25.1 °C 11.6 °C 1020.9 hPa SW 0.8 km/h 11.3 km/h 42.9% 0 mm 116 W/m2
17:04 24.9 °C 11.9 °C 1020.9 hPa SW 0.6 km/h 11.3 km/h 44.2% 0 mm 98 W/m2
17:09 24.8 °C 12.2 °C 1020.9 hPa Calm   6.4 km/h 45.2% 0 mm 77 W/m2
17:14 24.7 °C 12.2 °C 1020.9 hPa WSW 0.3 km/h 11.3 km/h 45.5% 0 mm 77 W/m2
17:19 24.7 °C 12.4 °C 1020.9 hPa WSW 1.6 km/h 11.3 km/h 46.3% 0 mm 69 W/m2
17:24 24.7 °C 11.8 °C 1020.9 hPa WSW 0.8 km/h 11.3 km/h 44.5% 0 mm 123 W/m2
17:29 24.6 °C 12.1 °C 1020.9 hPa WSW 0.3 km/h 11.3 km/h 45.5% 0 mm 158 W/m2
17:34 24.6 °C 12.3 °C 1020.9 hPa SW 0.2 km/h 11.3 km/h 46.5% 0 mm 151 W/m2
17:39 24.5 °C 12.1 °C 1020.5 hPa SW 0.6 km/h 6.4 km/h 46% 0 mm 95 W/m2
17:44 24.5 °C 12.3 °C 1020.9 hPa SW 1.1 km/h 8 km/h 46.5% 0 mm 95 W/m2
17:49 24.5 °C 12.3 °C 1020.9 hPa SW 1.6 km/h 8 km/h 46.7% 0 mm 100 W/m2
17:54 24.5 °C 12.5 °C 1020.9 hPa SW 0.5 km/h 8 km/h 47.1% 0 mm 111 W/m2
17:59 24.6 °C 12.5 °C 1020.9 hPa SW 0.5 km/h 8 km/h 47% 0 mm 121 W/m2
18:04 24.5 °C 12.7 °C 1020.9 hPa SW 1.1 km/h 8 km/h 47.6% 0 mm 113 W/m2
18:09 24.3 °C 12.7 °C 1020.9 hPa SSW 0.3 km/h 6.4 km/h 48.3% 0 mm 81 W/m2
18:14 24.1 °C 12.6 °C 1020.9 hPa SSW 0.3 km/h 6.4 km/h 48.8% 0 mm 76 W/m2
18:19 23.8 °C 12.8 °C 1020.9 hPa Calm   6.4 km/h 49.9% 0 mm 74 W/m2
18:24 23.6 °C 12.8 °C 1020.9 hPa Calm   6.4 km/h 50.6% 0 mm 83 W/m2
18:29 23.5 °C 12.6 °C 1020.9 hPa SSW 0.8 km/h 6.4 km/h 50.5% 0 mm 104 W/m2
18:34 23.4 °C 12.7 °C 1020.9 hPa Calm   6.4 km/h 51.1% 0 mm 104 W/m2
18:39 23.4 °C 12.8 °C 1020.9 hPa SSW 0.2 km/h 4.8 km/h 51.3% 0 mm 67 W/m2
18:44 23.4 °C 12.6 °C 1020.9 hPa South 0.2 km/h 4.8 km/h 50.5% 0 mm 49 W/m2
18:49 23.3 °C 12.9 °C 1020.9 hPa South 0.5 km/h 4.8 km/h 52% 0 mm 42 W/m2
18:54 23.3 °C 12.9 °C 1020.9 hPa South 0.2 km/h 4.8 km/h 52.1% 0 mm 44 W/m2
18:59 23.2 °C 13.1 °C 1021.2 hPa South 0.8 km/h 4.8 km/h 52.8% 0 mm 44 W/m2
19:04 23.2 °C 13 °C 1021.2 hPa SSW 1.4 km/h 9.7 km/h 52.7% 0 mm 44 W/m2
19:09 23.2 °C 13.2 °C 1021.2 hPa SW 0.5 km/h 9.7 km/h 53.6% 0 mm 40 W/m2
19:14 23.1 °C 13.3 °C 1021.2 hPa SW 0.6 km/h 9.7 km/h 54% 0 mm 35 W/m2
19:19 23 °C 13.5 °C 1021.2 hPa SSW 0.3 km/h 9.7 km/h 55% 0 mm 32 W/m2
19:24 22.9 °C 13.4 °C 1021.2 hPa SSW 0.2 km/h 9.7 km/h 55% 0 mm 28 W/m2
19:29 22.8 °C 13.5 °C 1021.2 hPa Calm   9.7 km/h 55.7% 0 mm 26 W/m2
19:34 22.7 °C 13.5 °C 1021.2 hPa Calm   9.7 km/h 56.1% 0 mm 26 W/m2
19:39 22.6 °C 13.5 °C 1021.6 hPa SSW 0.2 km/h 3.2 km/h 56.5% 0 mm 28 W/m2
19:44 22.4 °C 13.5 °C 1021.6 hPa SSW 0.5 km/h 3.2 km/h 57% 0 mm 25 W/m2
19:49 22.3 °C 13.4 °C 1021.6 hPa SSW 0.3 km/h 3.2 km/h 57% 0 mm 18 W/m2
19:54 22.2 °C 13.3 °C 1021.6 hPa Calm   3.2 km/h 57% 0 mm 14 W/m2
19:59 22.1 °C 13.3 °C 1021.6 hPa Calm   3.2 km/h 57.5% 0 mm 11 W/m2
20:00 22 °C 13.4 °C 1021.6 hPa Calm   3.2 km/h 58% 0 mm 9 W/m2
20:09 21.8 °C 13.3 °C 1021.6 hPa Calm     58.6% 0 mm 5 W/m2
20:14 21.7 °C 13.3 °C 1021.6 hPa Calm     58.8% 0 mm 5 W/m2
20:19 21.5 °C 13.1 °C 1021.9 hPa Calm     58.5% 0 mm 0 W/m2
20:24 21.3 °C 12.8 °C 1021.9 hPa SSW 0.5 km/h 4.8 km/h 58% 0 mm 0 W/m2
20:29 21.2 °C 12.7 °C 1021.9 hPa Calm   4.8 km/h 58.3% 0 mm 0 W/m2
20:34 21.1 °C 12.8 °C 1021.9 hPa Calm   4.8 km/h 59% 0 mm 0 W/m2
20:39 20.9 °C 12.6 °C 1021.6 hPa Calm   1.6 km/h 59.1% 0 mm 0 W/m2
20:44 20.8 °C 12.7 °C 1021.6 hPa Calm   1.6 km/h 60% 0 mm 0 W/m2
20:49 20.6 °C 12.8 °C 1021.9 hPa Calm   1.6 km/h 60.9% 0 mm 0 W/m2
20:54 20.4 °C 12.7 °C 1021.9 hPa Calm   1.6 km/h 61% 0 mm 0 W/m2
20:59 20.3 °C 12.8 °C 1021.9 hPa Calm   1.6 km/h 61.9% 0 mm 0 W/m2
21:04 20.2 °C 12.9 °C 1021.9 hPa Calm   1.6 km/h 62.8% 0 mm 0 W/m2
21:09 20.1 °C 12.9 °C 1021.9 hPa Calm     63.1% 0 mm 0 W/m2
21:14 20 °C 13 °C 1021.9 hPa Calm     64% 0 mm 0 W/m2
21:19 19.9 °C 13 °C 1021.9 hPa Calm     64.7% 0 mm 0 W/m2
21:24 19.7 °C 13 °C 1021.9 hPa Calm     65% 0 mm 0 W/m2
21:29 19.6 °C 13.1 °C 1021.9 hPa Calm     66% 0 mm 0 W/m2
21:34 19.5 °C 13.1 °C 1021.9 hPa Calm     66.5% 0 mm 0 W/m2
21:39 19.3 °C 13.1 °C 1022.2 hPa Calm     67% 0 mm 0 W/m2
21:44 19.2 °C 12.9 °C 1022.2 hPa Calm     67.1% 0 mm 0 W/m2
21:49 19.1 °C 13.1 °C 1022.2 hPa Calm     68% 0 mm 0 W/m2
21:54 19 °C 13.2 °C 1022.2 hPa Calm     68.9% 0 mm 0 W/m2
21:59 18.9 °C 13.1 °C 1022.2 hPa Calm     69% 0 mm 0 W/m2
22:04 18.8 °C 13.1 °C 1022.2 hPa Calm     69.3% 0 mm 0 W/m2
22:09 18.7 °C 13.1 °C 1022.2 hPa Calm     70% 0 mm 0 W/m2
22:14 18.6 °C 13.3 °C 1022.2 hPa Calm     70.9% 0 mm 0 W/m2
22:19 18.6 °C 13.2 °C 1022.2 hPa Calm     71% 0 mm 0 W/m2
22:24 18.4 °C 13.1 °C 1022.2 hPa Calm     71% 0 mm 0 W/m2
22:29 18.3 °C 13.1 °C 1022.2 hPa Calm     71.6% 0 mm 0 W/m2
22:34 18.3 °C 13.1 °C 1022.2 hPa Calm     72% 0 mm 0 W/m2
22:39 18.2 °C 13.1 °C 1022.2 hPa Calm     72% 0 mm 0 W/m2
22:44 18.1 °C 13.1 °C 1022.2 hPa Calm     72.5% 0 mm 0 W/m2
22:49 17.9 °C 13.1 °C 1022.2 hPa Calm     73% 0 mm 0 W/m2
22:54 17.8 °C 12.9 °C 1022.2 hPa Calm     73% 0 mm 0 W/m2
22:59 17.8 °C 12.9 °C 1022.2 hPa Calm     73% 0 mm 0 W/m2
23:04 17.7 °C 12.7 °C 1022.2 hPa Calm     72.3% 0 mm 0 W/m2
23:09 17.7 °C 12.7 °C 1022.2 hPa Calm     72.9% 0 mm 0 W/m2
23:14 17.6 °C 12.7 °C 1022.2 hPa Calm     73% 0 mm 0 W/m2
23:19 17.6 °C 12.7 °C 1022.2 hPa Calm     73% 0 mm 0 W/m2
23:24 17.4 °C 12.6 °C 1022.2 hPa Calm     73% 0 mm 0 W/m2
23:29 17.4 °C 12.5 °C 1022.2 hPa Calm     73% 0 mm 0 W/m2
23:34 17.3 °C 12.4 °C 1022.2 hPa Calm     73% 0 mm 0 W/m2
23:39 17.2 °C 12.4 °C 1022.2 hPa Calm     73.3% 0 mm 0 W/m2
23:44 17.1 °C 12.4 °C 1022.2 hPa Calm     73.9% 0 mm 0 W/m2
23:49 17 °C 12.3 °C 1022.2 hPa Calm     74% 0 mm 0 W/m2
23:54 16.9 °C 12.2 °C 1022.2 hPa Calm     74% 0 mm 0 W/m2
23:59 16.8 °C 12.2 °C 1022.2 hPa Calm     74% 0 mm 0 W/m2
Hartford County Weather
Compliments of Weather Underground - 2 mb